KLWT/LWT METAR and TAF weather

Enter ICAO airport designator
Station Type Date Time Source
KLWT METAR 2020/09/18 23:54 UTC NOAA

KLWT 182354Z AUTO 11008KT 9SM CLR 23/07 A2994 RMK AO2 SLP115 T02330067 10278 20233 56010


Station Type Date Time Source
KLWT Decoded METAR 2020/09/18 23:54 UTC NOAA

LEWISTOWN MUNICIPAL AIRPORT , MT, United States (KLWT) 47-03N 109-27W
Sep 18, 2020 - 07:54 PM EDT / 2020.09.18 2354 UTC
Wind: from the ESE (110 degrees) at 9 MPH (8 KT):0
Visibility: 9 mile(s):0
Sky conditions: clear
Temperature: 73.9 F (23.3 C)
Dew Point: 44.1 F (6.7 C)
Relative Humidity: 34%
Pressure (altimeter): 29.94 in. Hg (1013 hPa)
Pressure tendency: 0.03 inches (1.0 hPa) lower than three hours ago
ob: KLWT 182354Z AUTO 11008KT 9SM CLR 23/07 A2994 RMK AO2 SLP115 T02330067 10278 20233 56010
cycle: 0

Station Type Date Time Source
KLWT TAF 2020/09/18 18:58 UTC NOAA

TAF KLWT 181756Z 1818/1918 10010KT 6SM FU BR SCT250
FM190200 13010KT 6SM BR FEW100 SCT250
FM191400 VRB05KT 5SM HZ BR SCT090 BKN180

Example: see airport list